Happy Valentine's Day! 

Flight Track Log - Related Links

Times and Time Zones

All times are in EDT time to prevent confusion due to time zone crossing. See the CSZ9822 flight status page for this flight to view local times or setup timezone preferences in your user account.


Time Position Orientation Groundspeed Altitude Reporting Facility
EDT Latitude Longitude Course Direction KTS MPH feet Rate Location/Type
Wed 09:37:00 AM 39.3635 116.4462 188° South  Level Estimated
Wed 09:38:00 AM 39.2611 116.4267 188° South  Level Estimated
Wed 09:39:00 AM 39.1587 116.4072 188° South  Level Estimated
Wed 09:40:00 AM 39.0563 116.3878 188° South  Level Estimated
Wed 09:41:00 AM 38.9539 116.3684 188° South  Level Estimated
Wed 09:42:00 AM 38.8515 116.3491 188° South  Level Estimated
Wed 09:43:00 AM 38.7491 116.3299 188° South  Level Estimated
Wed 09:44:00 AM 38.6467 116.3107 188° South  Level Estimated
Wed 09:45:00 AM 38.5443 116.2915 188° South  Level Estimated
Wed 09:46:00 AM 38.4418 116.2724 188° South  Level Estimated
Wed 09:47:00 AM 38.3394 116.2534 188° South  Level Estimated
Wed 09:48:00 AM 38.2370 116.2344 188° South  Level Estimated
Wed 09:49:00 AM 38.1346 116.2155 188° South  Level Estimated
Wed 09:50:00 AM 38.0321 116.1966 188° South  Level Estimated
Wed 09:51:00 AM 37.9297 116.1778 188° South  Level Estimated
Wed 09:52:00 AM 37.8273 116.1590 188° South  Level Estimated
Wed 09:53:00 AM 37.7248 116.1403 188° South  Level Estimated
Wed 09:54:00 AM 37.6224 116.1217 188° South  Level Estimated
Wed 09:55:00 AM 37.5200 116.1031 188° South  Level Estimated
Wed 09:56:00 AM 37.4175 116.0845 188° South  Level Estimated
Wed 09:57:00 AM 37.3151 116.0660 188° South  Level Estimated
Wed 09:58:00 AM 37.2126 116.0475 188° South  Level Estimated
Wed 09:59:00 AM 37.1101 116.0291 188° South  Level Estimated
Wed 10:00:00 AM 37.0077 116.0107 188° South  Level Estimated
Wed 10:01:00 AM 36.9052 115.9924 188° South  Level Estimated
Wed 10:02:00 AM 36.8028 115.9742 188° South  Level Estimated
Wed 10:03:00 AM 36.7003 115.9560 188° South  Level Estimated
Wed 10:04:00 AM 36.5978 115.9378 188° South  Level Estimated
Wed 10:05:00 AM 36.4954 115.9197 188° South  Level Estimated
Wed 10:06:00 AM 36.3929 115.9016 188° South  Level Estimated
Wed 10:07:00 AM 36.2904 115.8836 188° South  Level Estimated
Wed 10:08:00 AM 36.1879 115.8656 188° South  Level Estimated
Wed 10:09:00 AM 36.0854 115.8477 188° South  Level Estimated
Wed 10:10:00 AM 35.9830 115.8298 188° South  Level Estimated
Wed 10:11:00 AM 35.8805 115.8120 188° South  Level Estimated
Wed 10:12:00 AM 35.7780 115.7942 188° South  Level Estimated
Wed 10:13:00 AM 35.6755 115.7765 188° South  Level Estimated
Wed 10:14:00 AM 35.5730 115.7588 188° South  Level Estimated
Wed 10:15:00 AM 35.4705 115.7411 188° South  Level Estimated
Wed 10:16:00 AM 35.3680 115.7235 188° South  Level Estimated
Wed 10:17:00 AM 35.2655 115.7059 188° South  Level Estimated
Wed 10:18:00 AM 35.1630 115.6884 188° South  Level Estimated
Wed 10:19:00 AM 35.0605 115.6710 188° South  Level Estimated
Wed 10:20:00 AM 34.9580 115.6535 188° South  Level Estimated
Wed 10:21:00 AM 34.8555 115.6361 188° South  Level Estimated
Wed 10:22:00 AM 34.7529 115.6188 188° South  Level Estimated
Wed 10:23:00 AM 34.6504 115.6015 188° South  Level Estimated
Wed 10:24:00 AM 34.5479 115.5843 188° South  Level Estimated
Wed 10:25:00 AM 34.4454 115.5670 188° South  Level Estimated
Wed 10:26:00 AM 34.3428 115.5499 188° South  Level Estimated
Wed 10:27:00 AM 34.2403 115.5327 188° South  Level Estimated
Wed 10:28:00 AM 34.1378 115.5156 188° South  Level Estimated
Wed 10:29:00 AM 34.0353 115.4986 188° South  Level Estimated
Wed 10:30:00 AM 33.9327 115.4816 188° South  Level Estimated
Wed 10:31:00 AM 33.8302 115.4646 188° South  Level Estimated
Wed 10:32:00 AM 33.7276 115.4477 188° South  Level Estimated
Wed 10:33:00 AM 33.6251 115.4308 188° South  Level Estimated
Wed 10:34:00 AM 33.5226 115.4140 188° South  Level Estimated
Wed 10:35:00 AM 33.4200 115.3972 188° South  Level Estimated
Wed 10:36:00 AM 33.3175 115.3804 188° South  Level Estimated
Wed 10:37:00 AM 33.2149 115.3637 188° South  Level Estimated
Wed 10:38:00 AM 33.1124 115.3470 188° South  Level Estimated
Wed 10:39:00 AM 33.0098 115.3304 188° South  Level Estimated
Wed 10:40:00 AM 32.9072 115.3138 188° South  Level Estimated
Wed 10:41:00 AM 32.8047 115.2972 188° South  Level Estimated
Wed 10:42:00 AM 32.7021 115.2806 188° South  Level Estimated
Wed 10:43:00 AM 32.5996 115.2642 188° South  Level Estimated
Wed 10:44:00 AM 32.4970 115.2477 188° South  Level Estimated
Wed 10:45:00 AM 32.3944 115.2313 188° South  Level Estimated
Wed 10:46:00 AM 32.2919 115.2149 188° South  Level Estimated
Wed 10:47:00 AM 32.1893 115.1986 188° South  Level Estimated
Wed 10:48:00 AM 32.0867 115.1823 188° South  Level Estimated
Wed 10:49:00 AM 31.9841 115.1660 188° South  Level Estimated
Wed 10:50:00 AM 31.8816 115.1497 188° South  Level Estimated
Wed 10:51:00 AM 31.7790 115.1336 188° South  Level Estimated
Wed 10:52:00 AM 31.6764 115.1174 188° South  Level Estimated
Wed 10:53:00 AM 31.5738 115.1013 188° South  Level Estimated
Wed 10:54:00 AM 31.4712 115.0852 188° South  Level Estimated
Wed 10:55:00 AM 31.3686 115.0691 188° South  Level Estimated
Wed 10:56:00 AM 31.2660 115.0531 188° South  Level Estimated
Wed 10:57:00 AM 31.1635 115.0371 188° South  Level Estimated
Wed 10:58:00 AM 31.0609 115.0212 188° South  Level Estimated
Wed 10:59:00 AM 30.9583 115.0052 188° South  Level Estimated
Wed 11:00:00 AM 30.8557 114.9894 188° South  Level Estimated
Wed 11:01:00 AM 30.7531 114.9735 188° South  Level Estimated
Wed 11:02:00 AM 30.6504 114.9577 188° South  Level Estimated
Wed 11:03:00 AM 30.5478 114.9419 188° South  Level Estimated
Wed 11:04:00 AM 30.4452 114.9262 188° South  Level Estimated
Wed 11:05:00 AM 30.3426 114.9105 188° South  Level Estimated
Wed 11:06:00 AM 30.2400 114.8948 188° South  Level Estimated
Wed 11:07:00 AM 30.1374 114.8791 188° South  Level Estimated
Wed 11:08:00 AM 30.0348 114.8635 188° South  Level Estimated
Wed 11:09:00 AM 29.9322 114.8479 187° South  Level Estimated
Wed 11:10:00 AM 29.8296 114.8324 187° South  Level Estimated
Wed 11:11:00 AM 29.7269 114.8168 187° South  Level Estimated
Wed 11:12:00 AM 29.6243 114.8014 187° South  Level Estimated
Wed 11:13:00 AM 29.5217 114.7859 187° South  Level Estimated
Wed 11:14:00 AM 29.4191 114.7705 187° South  Level Estimated
Wed 11:15:00 AM 29.3165 114.7551 187° South  Level Estimated
Wed 11:16:00 AM 29.2138 114.7397 187° South  Level Estimated
Wed 11:17:00 AM 29.1112 114.7244 187° South  Level Estimated
Wed 11:18:00 AM 29.0086 114.7091 187° South  Level Estimated
Wed 11:19:00 AM 28.9059 114.6938 187° South  Level Estimated
Wed 11:20:00 AM 28.8033 114.6786 187° South  Level Estimated
Wed 11:21:00 AM 28.7006 114.6634 187° South  Level Estimated
Wed 11:22:00 AM 28.5980 114.6482 187° South  Level Estimated
Wed 11:23:00 AM 28.4954 114.6330 187° South  Level Estimated
Wed 11:24:00 AM 28.3927 114.6179 187° South  Level Estimated
Wed 11:25:00 AM 28.2901 114.6028 187° South  Level Estimated
Wed 11:26:00 AM 28.1874 114.5877 187° South  Level Estimated
Wed 11:27:00 AM 28.0848 114.5727 187° South  Level Estimated
Wed 11:28:00 AM 27.9821 114.5577 187° South  Level Estimated
Wed 11:29:00 AM 27.8795 114.5427 187° South  Level Estimated
Wed 11:30:00 AM 27.7768 114.5278 187° South  Level Estimated
Wed 11:31:00 AM 27.6742 114.5128 187° South  Level Estimated
Wed 11:32:00 AM 27.5715 114.4980 187° South  Level Estimated
Wed 11:33:00 AM 27.4689 114.4831 187° South  Level Estimated
Wed 11:34:00 AM 27.3662 114.4682 187° South  Level Estimated
Wed 11:35:00 AM 27.2636 114.4534 187° South  Level Estimated
Wed 11:36:00 AM 27.1609 114.4387 187° South  Level Estimated
Wed 11:37:00 AM 27.0582 114.4239 187° South  Level Estimated
Wed 11:38:00 AM 26.9556 114.4092 187° South  Level Estimated
Wed 11:39:00 AM 26.8529 114.3945 187° South  Level Estimated
Wed 11:40:00 AM 26.7502 114.3798 187° South  Level Estimated
Wed 11:41:00 AM 26.6476 114.3651 187° South  Level Estimated
Wed 11:42:00 AM 26.5449 114.3505 187° South  Level Estimated
Wed 11:43:00 AM 26.4422 114.3359 187° South  Level Estimated
Wed 11:44:00 AM 26.3396 114.3214 187° South  Level Estimated
Wed 11:45:00 AM 26.2369 114.3068 187° South  Level Estimated
Wed 11:46:00 AM 26.1342 114.2923 187° South  Level Estimated
Wed 11:47:00 AM 26.0315 114.2778 187° South  Level Estimated
Wed 11:48:00 AM 25.9288 114.2633 187° South  Level Estimated
Wed 11:49:00 AM 25.8262 114.2489 187° South  Level Estimated
Wed 11:50:00 AM 25.7235 114.2345 187° South  Level Estimated
Wed 11:51:00 AM 25.6208 114.2201 187° South  Level Estimated
Wed 11:52:00 AM 25.5181 114.2057 187° South  Level Estimated
Wed 11:53:00 AM 25.4154 114.1914 187° South  Level Estimated
Wed 11:54:00 AM 25.3127 114.1770 187° South  Level Estimated
Wed 11:55:00 AM 25.2100 114.1627 187° South  Level Estimated
Wed 11:56:00 AM 25.1073 114.1485 187° South  Level Estimated
Wed 11:57:00 AM 25.0047 114.1342 187° South  Level Estimated
Wed 11:58:00 AM 24.9020 114.1200 187° South  Level Estimated
Wed 11:59:00 AM 24.7993 114.1058 187° South  Level Estimated
Wed 12:00:00 PM 24.6966 114.0916 187° South  Level Estimated
Wed 12:01:00 PM 24.5939 114.0775 187° South  Level Estimated
Wed 12:02:00 PM 24.4912 114.0633 187° South  Level Estimated
Wed 12:03:00 PM 24.3885 114.0492 187° South  Level Estimated
Wed 12:04:00 PM 24.2858 114.0351 187° South  Level Estimated
Wed 12:05:00 PM 24.1831 114.0211 187° South  Level Estimated
Wed 12:06:00 PM 24.0804 114.0070 187° South  Level Estimated
Wed 12:07:00 PM 23.9777 113.9930 187° South  Level Estimated
Wed 12:08:00 PM 23.8750 113.9790 187° South  Level Estimated
Wed 12:09:00 PM 23.7722 113.9651 187° South  Level Estimated
Wed 12:10:00 PM 23.6695 113.9511 187° South  Level Estimated
Wed 12:11:00 PM 23.5668 113.9372 187° South  Level Estimated
Wed 12:12:00 PM 23.4641 113.9233 187° South  Level Estimated
Wed 12:13:00 PM 23.3614 113.9094 187° South  Level Estimated
Wed 12:14:00 PM 23.2587 113.8955 187° South  Level Estimated
Wed 12:15:00 PM 23.1560 113.8817 187° South  Level Estimated
Wed 12:16:00 PM 23.0533 113.8679 187° South  Level Estimated
Wed 12:17:00 PM 22.9506 113.8541 187° South  Level Estimated
Wed 12:18:00 PM 22.8478 113.8403 187° South  Level Estimated
Wed 12:19:00 PM 22.7451 113.8265 187° South  Level Estimated
Wed 12:20:00 PM 22.6424 113.8128 187° South  Level Estimated
Wed 12:21:00 PM 22.6395 113.8124 187° South  Level Estimated
Wed 12:22:00 PM 22.6395 113.8124 North  Level Estimated
Wed 12:23:00 PM 22.6395 113.8124 North  Level Estimated
Wed 12:24:00 PM 22.6395 113.8124 North  Level Estimated

Login

Don't have an account? Register now (free) for customized features, flight alerts, and more!